createdAt,value
2022-10-19T00:00:30.306Z,12.02
2022-10-19T00:02:56.712Z,12.04
2022-10-19T00:05:23.091Z,12.10
2022-10-19T00:07:49.477Z,12.11
2022-10-19T00:10:15.922Z,12.10
2022-10-19T00:12:42.356Z,12.15
2022-10-19T00:15:09.068Z,12.09
2022-10-19T00:17:35.973Z,12.07
2022-10-19T00:20:02.509Z,12.09
2022-10-19T00:22:28.887Z,12.18
2022-10-19T00:24:57.365Z,12.14
2022-10-19T00:27:23.751Z,12.15
2022-10-19T00:29:50.145Z,12.15
2022-10-19T00:32:16.527Z,12.14
2022-10-19T00:34:43.020Z,12.21
2022-10-19T00:37:09.398Z,12.18
2022-10-19T00:39:35.767Z,12.21
2022-10-19T00:42:02.144Z,12.20
2022-10-19T00:44:28.463Z,12.16
2022-10-19T00:46:58.948Z,12.17
2022-10-19T00:49:28.675Z,12.24
2022-10-19T00:52:03.260Z,12.21
2022-10-19T00:54:32.450Z,12.17
2022-10-19T00:56:59.767Z,12.17
2022-10-19T00:59:27.997Z,12.20
2022-10-19T01:01:54.840Z,12.23
2022-10-19T01:04:23.407Z,12.21
2022-10-19T01:09:17.514Z,12.26
2022-10-19T01:12:11.944Z,12.27
2022-10-19T01:15:15.670Z,12.21
2022-10-19T01:17:47.023Z,12.29
2022-10-19T01:20:27.990Z,12.27
2022-10-19T01:23:26.115Z,12.22
2022-10-19T01:26:09.766Z,12.24
2022-10-19T01:28:55.941Z,12.24
2022-10-19T01:31:45.910Z,12.28
2022-10-19T01:34:23.000Z,12.26
2022-10-19T01:37:17.379Z,12.25
2022-10-19T01:39:54.948Z,12.29
2022-10-19T01:42:45.797Z,12.24
2022-10-19T01:45:18.300Z,12.19
2022-10-19T01:48:06.239Z,12.17
2022-10-19T01:50:40.987Z,12.11
2022-10-19T01:53:10.077Z,12.17
2022-10-19T01:55:42.227Z,12.20
2022-10-19T01:58:13.879Z,12.08
2022-10-19T02:00:45.305Z,12.20
2022-10-19T02:03:13.488Z,12.16
2022-10-19T02:05:41.575Z,12.23
2022-10-19T02:08:20.302Z,12.19
2022-10-19T02:10:47.499Z,12.15
2022-10-19T02:13:15.535Z,12.18
2022-10-19T02:15:46.398Z,12.19
2022-10-19T02:18:15.489Z,12.20
2022-10-19T02:20:41.968Z,12.17
2022-10-19T02:23:09.099Z,12.17
2022-10-19T02:25:36.630Z,12.20
2022-10-19T02:28:04.728Z,12.19
2022-10-19T02:30:31.362Z,12.17
2022-10-19T02:32:57.771Z,12.15
2022-10-19T02:35:24.202Z,12.17
2022-10-19T02:37:50.730Z,12.14
2022-10-19T02:40:17.288Z,12.15
2022-10-19T02:43:00.154Z,12.16
2022-10-19T02:45:32.796Z,12.12
2022-10-19T02:48:03.987Z,12.16
2022-10-19T02:50:30.654Z,12.14
2022-10-19T02:52:58.819Z,12.11
2022-10-19T02:55:25.572Z,12.07
2022-10-19T02:57:52.036Z,12.18
2022-10-19T03:00:18.410Z,12.22
2022-10-19T03:02:44.782Z,12.25
2022-10-19T03:05:11.170Z,12.22
2022-10-19T03:07:37.664Z,12.26
2022-10-19T03:10:04.418Z,12.23
2022-10-19T03:12:30.898Z,12.16
2022-10-19T03:14:57.278Z,12.17
2022-10-19T03:17:23.726Z,12.23
2022-10-19T03:19:50.100Z,12.15
2022-10-19T03:22:16.571Z,12.21
2022-10-19T03:24:42.945Z,12.21
2022-10-19T03:27:09.540Z,12.19
2022-10-19T03:29:35.908Z,12.18
2022-10-19T03:32:02.293Z,12.21
2022-10-19T03:34:28.767Z,12.23
2022-10-19T03:36:56.578Z,12.22
2022-10-19T03:39:22.954Z,12.27
2022-10-19T03:41:49.335Z,12.20
2022-10-19T03:44:15.713Z,12.26
2022-10-19T03:46:42.125Z,12.21
2022-10-19T03:49:09.294Z,12.24
2022-10-19T03:51:36.264Z,12.23
2022-10-19T03:54:06.522Z,12.20
2022-10-19T03:56:34.630Z,12.19
2022-10-19T03:59:03.374Z,12.19
2022-10-19T04:01:38.407Z,12.20
2022-10-19T04:04:07.466Z,12.19
2022-10-19T04:06:36.633Z,12.17
2022-10-19T04:09:04.552Z,12.17
2022-10-19T04:11:33.300Z,12.17
2022-10-19T04:14:00.079Z,12.20
2022-10-19T04:16:28.692Z,12.15
2022-10-19T04:18:55.546Z,12.15
2022-10-19T04:21:30.809Z,12.18
2022-10-19T04:24:00.239Z,12.13
2022-10-19T04:26:26.629Z,12.14
2022-10-19T04:28:53.242Z,12.17
2022-10-19T04:31:19.654Z,12.18
2022-10-19T04:36:17.354Z,12.16
2022-10-19T04:38:43.777Z,12.19
2022-10-19T04:41:12.551Z,12.22
2022-10-19T04:43:39.364Z,12.25
2022-10-19T04:46:07.756Z,12.24
2022-10-19T04:48:35.537Z,12.10
2022-10-19T04:51:02.175Z,12.20
2022-10-19T04:53:28.558Z,12.21
2022-10-19T04:55:54.988Z,12.13
2022-10-19T04:58:26.547Z,12.19
2022-10-19T05:00:53.074Z,12.18
2022-10-19T05:03:19.485Z,12.24
2022-10-19T05:05:45.860Z,12.25
2022-10-19T05:08:12.280Z,12.22
2022-10-19T05:10:38.750Z,12.11
2022-10-19T05:13:05.603Z,12.19
2022-10-19T05:15:31.996Z,12.21
2022-10-19T05:17:58.586Z,12.15
2022-10-19T05:20:25.051Z,12.14
2022-10-19T05:22:51.766Z,12.11
2022-10-19T05:25:18.131Z,12.16
2022-10-19T05:27:44.537Z,12.16
2022-10-19T05:30:10.998Z,12.20
2022-10-19T05:32:37.374Z,12.13
2022-10-19T05:35:03.927Z,12.24
2022-10-19T05:37:30.320Z,12.20
2022-10-19T05:39:56.704Z,12.16
2022-10-19T05:42:23.087Z,12.16
2022-10-19T05:44:49.457Z,12.12
2022-10-19T05:47:15.838Z,12.20
2022-10-19T05:49:42.210Z,12.22
2022-10-19T05:52:08.700Z,12.16
2022-10-19T05:54:37.015Z,12.24
2022-10-19T05:57:03.554Z,12.23
2022-10-19T05:59:29.977Z,12.26
2022-10-19T06:01:56.403Z,12.28
2022-10-19T06:04:22.898Z,12.20
2022-10-19T06:06:49.283Z,12.19
2022-10-19T06:09:15.718Z,12.22
2022-10-19T06:11:43.134Z,12.24
2022-10-19T06:14:13.344Z,12.33
2022-10-19T06:16:39.780Z,12.33
2022-10-19T06:19:06.283Z,12.28
2022-10-19T06:21:33.906Z,12.28
2022-10-19T06:24:02.759Z,12.31
2022-10-19T06:26:30.943Z,12.17
2022-10-19T06:29:00.363Z,12.21
2022-10-19T06:31:27.980Z,12.25
2022-10-19T06:33:55.748Z,12.29
2022-10-19T06:36:24.919Z,12.25
2022-10-19T06:38:53.125Z,12.19
2022-10-19T06:41:20.423Z,12.23
2022-10-19T06:43:54.284Z,12.27
2022-10-19T06:46:23.571Z,12.11
2022-10-19T06:48:54.891Z,12.20
2022-10-19T06:51:21.907Z,12.15
2022-10-19T06:53:54.181Z,12.21
2022-10-19T06:56:24.541Z,12.20
2022-10-19T06:58:51.022Z,12.24
2022-10-19T07:01:17.510Z,12.17
2022-10-19T07:03:43.960Z,12.23
2022-10-19T07:06:12.255Z,12.23
2022-10-19T07:08:40.469Z,12.25
2022-10-19T07:11:09.976Z,12.25
2022-10-19T07:13:36.640Z,12.35
2022-10-19T07:16:06.740Z,12.41
2022-10-19T07:18:36.918Z,12.34
2022-10-19T07:21:06.066Z,12.43
2022-10-19T07:23:33.942Z,12.42
2022-10-19T07:26:09.567Z,12.40
2022-10-19T07:28:35.980Z,12.26
2022-10-19T07:31:10.555Z,12.39
2022-10-19T07:33:37.235Z,12.45
2022-10-19T07:36:06.543Z,12.46
2022-10-19T07:38:33.744Z,12.47
2022-10-19T07:41:15.113Z,12.46
2022-10-19T07:43:43.253Z,12.52
2022-10-19T07:46:13.335Z,12.45
2022-10-19T07:48:39.724Z,12.53
2022-10-19T07:51:08.362Z,12.55
2022-10-19T07:53:35.046Z,12.58
2022-10-19T07:56:07.015Z,12.59
2022-10-19T07:58:34.391Z,12.62
2022-10-19T08:01:04.901Z,12.70
2022-10-19T08:04:31.206Z,12.74
2022-10-19T08:06:19.104Z,12.75
2022-10-19T08:08:47.103Z,12.84
2022-10-19T08:11:21.108Z,12.80
2022-10-19T08:13:48.232Z,12.88
2022-10-19T08:16:30.152Z,12.97
2022-10-19T08:18:58.734Z,12.86
2022-10-19T08:21:26.485Z,12.84
2022-10-19T08:23:52.873Z,12.90
2022-10-19T08:26:19.925Z,13.01
2022-10-19T08:28:46.322Z,13.03
2022-10-19T08:31:19.559Z,12.95
2022-10-19T08:33:46.227Z,12.97
2022-10-19T08:36:13.634Z,13.03
2022-10-19T08:38:41.563Z,13.15
2022-10-19T08:41:29.116Z,13.29
2022-10-19T08:44:03.987Z,13.29
2022-10-19T08:46:54.131Z,13.25
2022-10-19T08:49:25.574Z,13.18
2022-10-19T08:51:57.731Z,13.26
2022-10-19T08:54:29.197Z,13.26
2022-10-19T08:57:13.702Z,13.32
2022-10-19T08:59:58.677Z,13.41
2022-10-19T09:02:43.736Z,13.49
2022-10-19T09:05:35.790Z,13.55
2022-10-19T09:08:02.587Z,13.63
2022-10-19T09:10:32.989Z,13.66
2022-10-19T09:13:17.600Z,13.69
2022-10-19T09:15:49.245Z,13.63
2022-10-19T09:18:25.436Z,13.75
2022-10-19T09:20:58.082Z,13.90
2022-10-19T09:23:45.455Z,13.85
2022-10-19T09:26:15.835Z,13.81
2022-10-19T09:29:06.493Z,13.74
2022-10-19T09:31:42.746Z,13.79
2022-10-19T09:34:26.465Z,13.63
2022-10-19T09:36:58.524Z,13.73
2022-10-19T09:39:29.467Z,13.75
2022-10-19T09:42:05.423Z,13.91
2022-10-19T09:44:32.332Z,14.03
2022-10-19T09:47:19.996Z,14.12
2022-10-19T09:49:48.667Z,14.11
2022-10-19T09:52:35.915Z,14.26
2022-10-19T09:55:14.169Z,14.08
2022-10-19T09:57:44.519Z,14.15
2022-10-19T10:00:22.701Z,14.21
2022-10-19T10:02:51.387Z,14.25
2022-10-19T10:05:18.306Z,14.20
2022-10-19T10:07:45.250Z,14.21
2022-10-19T10:10:20.941Z,14.14
2022-10-19T10:12:48.040Z,14.22
2022-10-19T10:15:21.000Z,14.24
2022-10-19T10:17:48.935Z,14.27
2022-10-19T10:20:32.706Z,14.24
2022-10-19T10:23:02.446Z,14.29
2022-10-19T10:25:31.736Z,14.34
2022-10-19T10:28:14.584Z,14.25
2022-10-19T10:30:41.076Z,14.24
2022-10-19T10:33:16.004Z,14.30
2022-10-19T10:35:57.751Z,14.41
2022-10-19T10:38:32.014Z,14.40
2022-10-19T10:41:07.820Z,14.44
2022-10-19T10:43:38.600Z,14.37
2022-10-19T10:46:15.748Z,14.55
2022-10-19T10:48:46.441Z,14.59
2022-10-19T10:51:34.581Z,14.59
2022-10-19T10:54:18.720Z,14.63
2022-10-19T10:56:57.884Z,14.62
2022-10-19T10:59:54.519Z,14.46
2022-10-19T11:02:46.877Z,14.32
2022-10-19T11:05:33.399Z,14.44
2022-10-19T11:08:11.960Z,14.53
2022-10-19T11:10:49.891Z,14.47
2022-10-19T11:13:24.053Z,14.49
2022-10-19T11:16:13.993Z,14.52
2022-10-19T11:18:46.334Z,14.64
2022-10-19T11:21:22.946Z,14.68
2022-10-19T11:24:10.104Z,14.81
2022-10-19T11:26:52.653Z,14.91
2022-10-19T11:29:26.921Z,14.97
2022-10-19T11:31:55.190Z,15.14
2022-10-19T11:34:47.910Z,15.20
2022-10-19T11:37:49.720Z,14.98
2022-10-19T11:40:31.913Z,14.99
2022-10-19T11:43:23.521Z,14.95
2022-10-19T11:46:05.510Z,14.87
2022-10-19T11:48:43.724Z,15.11
2022-10-19T11:51:21.798Z,15.20
2022-10-19T11:54:14.849Z,15.18
2022-10-19T11:57:06.422Z,15.24
2022-10-19T12:00:15.137Z,15.11
2022-10-19T12:03:28.715Z,15.23
2022-10-19T12:06:12.779Z,15.52
2022-10-19T12:09:04.957Z,15.21
2022-10-19T12:11:58.965Z,14.95
2022-10-19T12:14:30.854Z,14.62
2022-10-19T12:17:02.095Z,14.76
2022-10-19T12:19:42.307Z,14.84
2022-10-19T12:22:16.894Z,14.96
2022-10-19T12:24:43.587Z,14.94
2022-10-19T12:27:14.997Z,14.96
2022-10-19T12:29:45.729Z,14.91
2022-10-19T12:32:17.752Z,14.82
2022-10-19T12:34:53.658Z,14.98
2022-10-19T12:37:44.355Z,14.93
2022-10-19T12:40:28.910Z,15.27
2022-10-19T12:43:17.590Z,15.39
2022-10-19T12:46:07.697Z,15.63
2022-10-19T12:48:36.313Z,15.74
2022-10-19T12:51:05.695Z,15.79
2022-10-19T12:53:40.738Z,15.93
2022-10-19T12:56:13.564Z,16.03
2022-10-19T12:58:48.795Z,15.88
2022-10-19T13:01:22.244Z,15.78
2022-10-19T13:03:53.208Z,15.86
2022-10-19T13:06:30.733Z,15.80
2022-10-19T13:09:00.635Z,16.00
2022-10-19T13:11:27.095Z,16.09
2022-10-19T13:14:19.667Z,15.99
2022-10-19T13:16:57.426Z,16.34
2022-10-19T13:19:24.539Z,16.42
2022-10-19T13:21:54.235Z,16.43
2022-10-19T13:24:27.194Z,16.59
2022-10-19T13:26:59.817Z,16.51
2022-10-19T13:29:28.825Z,16.71
2022-10-19T13:31:55.342Z,16.68
2022-10-19T13:34:24.135Z,16.68
2022-10-19T13:37:00.588Z,16.89
2022-10-19T13:39:28.814Z,16.58
2022-10-19T13:41:57.019Z,16.45
2022-10-19T13:44:26.657Z,16.16
2022-10-19T13:47:18.625Z,16.12
2022-10-19T13:50:11.548Z,16.10
2022-10-19T13:52:40.792Z,15.97
2022-10-19T13:55:32.907Z,15.97
2022-10-19T13:58:18.171Z,15.76
2022-10-19T14:01:09.436Z,16.12
2022-10-19T14:03:54.626Z,16.14
2022-10-19T14:06:42.667Z,16.61
2022-10-19T14:09:23.937Z,16.33
2022-10-19T14:11:53.353Z,16.73
2022-10-19T14:14:20.879Z,16.73
2022-10-19T14:17:03.796Z,16.96
2022-10-19T14:19:34.218Z,16.91
2022-10-19T14:22:16.862Z,17.01
2022-10-19T14:24:43.383Z,17.02
2022-10-19T14:27:19.605Z,17.09
2022-10-19T14:29:48.779Z,17.18
2022-10-19T14:32:17.486Z,17.05
2022-10-19T14:34:46.137Z,17.00
2022-10-19T14:37:26.583Z,17.00
2022-10-19T14:40:02.149Z,16.77
2022-10-19T14:42:44.102Z,16.84
2022-10-19T14:45:23.100Z,16.84
2022-10-19T14:47:54.754Z,16.69
2022-10-19T14:50:26.473Z,16.62
2022-10-19T14:53:01.852Z,16.72
2022-10-19T14:55:34.654Z,16.60
2022-10-19T14:58:02.087Z,16.20
2022-10-19T15:00:32.192Z,16.12
2022-10-19T15:03:04.423Z,16.18
2022-10-19T15:05:34.568Z,16.16
2022-10-19T15:08:17.257Z,16.23
2022-10-19T15:10:46.841Z,16.38
2022-10-19T15:13:24.976Z,16.30
2022-10-19T15:15:53.144Z,16.23
2022-10-19T15:18:43.945Z,16.13
2022-10-19T15:21:20.282Z,15.99
2022-10-19T15:23:52.111Z,15.84
2022-10-19T15:26:24.437Z,15.68
2022-10-19T15:28:51.133Z,15.61
2022-10-19T15:31:24.535Z,15.49
2022-10-19T15:33:57.383Z,15.31
2022-10-19T15:36:25.252Z,15.15
2022-10-19T15:39:06.089Z,14.97
2022-10-19T15:41:43.817Z,14.79
2022-10-19T15:44:33.816Z,14.68
2022-10-19T15:47:15.304Z,14.46
2022-10-19T15:49:41.676Z,14.34
2022-10-19T15:52:15.294Z,14.31
2022-10-19T15:54:42.786Z,14.23
2022-10-19T15:57:33.704Z,14.07
2022-10-19T16:00:07.291Z,14.06
2022-10-19T16:02:33.675Z,13.96
2022-10-19T16:05:00.132Z,13.77
2022-10-19T16:07:30.344Z,13.77
2022-10-19T16:09:57.254Z,13.71
2022-10-19T16:12:24.494Z,13.67
2022-10-19T16:14:50.883Z,13.50
2022-10-19T16:17:17.313Z,13.44
2022-10-19T16:19:44.091Z,13.50
2022-10-19T16:22:11.654Z,13.35
2022-10-19T16:24:38.255Z,13.28
2022-10-19T16:27:05.339Z,13.23
2022-10-19T16:29:31.951Z,13.03
2022-10-19T16:31:58.685Z,12.93
2022-10-19T16:34:25.339Z,12.91
2022-10-19T16:36:51.774Z,12.81
2022-10-19T16:39:18.177Z,12.79
2022-10-19T16:41:44.637Z,12.63
2022-10-19T16:44:12.552Z,12.66
2022-10-19T16:46:39.263Z,12.66
2022-10-19T16:49:05.683Z,12.55
2022-10-19T16:51:36.081Z,12.34
2022-10-19T16:54:04.120Z,12.39
2022-10-19T16:56:31.247Z,12.32
2022-10-19T16:59:05.977Z,12.34
2022-10-19T17:01:34.178Z,12.14
2022-10-19T17:04:00.784Z,12.19
2022-10-19T17:06:28.160Z,11.91
2022-10-19T17:11:45.274Z,11.99
2022-10-19T17:14:12.764Z,11.75
2022-10-19T17:16:39.897Z,11.82
2022-10-19T17:19:07.859Z,11.71
2022-10-19T17:21:38.466Z,11.69
2022-10-19T17:24:07.389Z,11.74
2022-10-19T17:26:36.631Z,11.71
2022-10-19T17:29:04.364Z,11.57
2022-10-19T17:31:31.265Z,11.75
2022-10-19T17:33:58.028Z,11.57
2022-10-19T17:36:28.066Z,11.56
2022-10-19T17:38:56.232Z,11.53
2022-10-19T17:41:22.871Z,11.52
2022-10-19T17:43:51.739Z,11.41
2022-10-19T17:46:20.661Z,11.35
2022-10-19T17:48:47.547Z,11.48
2022-10-19T17:51:23.630Z,11.33
2022-10-19T17:53:50.694Z,11.32
2022-10-19T17:56:19.802Z,11.24
2022-10-19T17:58:48.094Z,11.34
2022-10-19T18:01:15.981Z,11.27
2022-10-19T18:03:42.572Z,11.12
2022-10-19T18:06:12.685Z,10.98
2022-10-19T18:08:41.362Z,10.87
2022-10-19T18:11:12.469Z,10.95
2022-10-19T18:13:39.311Z,11.12
2022-10-19T18:16:17.442Z,10.99
2022-10-19T18:18:46.100Z,10.93
2022-10-19T18:21:14.346Z,10.84
2022-10-19T18:23:40.755Z,10.81
2022-10-19T18:26:10.072Z,10.85
2022-10-19T18:28:37.258Z,10.80
2022-10-19T18:31:16.574Z,10.69
2022-10-19T18:33:43.243Z,10.59
2022-10-19T18:36:10.599Z,10.52
2022-10-19T18:38:37.975Z,10.45
2022-10-19T18:41:07.147Z,10.55
2022-10-19T18:43:33.982Z,10.60
2022-10-19T18:46:00.827Z,10.53
2022-10-19T18:48:28.978Z,10.36
2022-10-19T18:50:56.648Z,10.27
2022-10-19T18:53:23.943Z,10.12
2022-10-19T18:55:58.189Z,9.99
2022-10-19T18:58:25.299Z,9.95
2022-10-19T19:01:09.947Z,9.92
2022-10-19T19:03:38.175Z,10.07
2022-10-19T19:06:09.653Z,10.05
2022-10-19T19:08:36.154Z,10.02
2022-10-19T19:11:13.007Z,10.00
2022-10-19T19:13:40.834Z,9.91
2022-10-19T19:16:08.112Z,9.88
2022-10-19T19:18:35.390Z,9.90
2022-10-19T19:21:02.463Z,9.69
2022-10-19T19:23:29.284Z,9.72
2022-10-19T19:25:56.564Z,9.56
2022-10-19T19:28:23.038Z,9.43
2022-10-19T19:30:49.432Z,9.38
2022-10-19T19:33:15.812Z,9.31
2022-10-19T19:35:46.633Z,9.42
2022-10-19T19:38:14.150Z,9.35
2022-10-19T19:40:46.040Z,9.32
2022-10-19T19:43:14.032Z,9.25
2022-10-19T19:45:42.407Z,9.18
2022-10-19T19:48:10.181Z,9.22
2022-10-19T19:50:38.182Z,9.27
2022-10-19T19:53:04.921Z,9.30
2022-10-19T19:55:38.110Z,9.21
2022-10-19T19:58:05.508Z,9.26
2022-10-19T20:00:31.899Z,9.09
2022-10-19T20:02:58.914Z,8.95
2022-10-19T20:05:27.027Z,8.96
2022-10-19T20:07:53.435Z,9.00
2022-10-19T20:10:19.844Z,8.90
2022-10-19T20:12:47.146Z,8.95
2022-10-19T20:15:15.315Z,8.98
2022-10-19T20:17:41.945Z,8.90
2022-10-19T20:20:10.656Z,8.73
2022-10-19T20:22:37.283Z,8.75
2022-10-19T20:25:04.560Z,8.66
2022-10-19T20:27:34.777Z,8.75
2022-10-19T20:30:01.367Z,8.78
2022-10-19T20:32:29.173Z,8.66
2022-10-19T20:34:55.570Z,8.51
2022-10-19T20:37:22.272Z,8.53
2022-10-19T20:39:49.353Z,8.43
2022-10-19T20:42:17.291Z,8.37
2022-10-19T20:44:44.321Z,8.29
2022-10-19T20:47:11.178Z,8.25
2022-10-19T20:49:37.610Z,8.23
2022-10-19T20:52:04.323Z,8.24
2022-10-19T20:54:30.715Z,8.26
2022-10-19T20:56:57.736Z,8.35
2022-10-19T20:59:26.726Z,8.28
2022-10-19T21:01:56.136Z,8.22
2022-10-19T21:04:23.265Z,8.16
2022-10-19T21:06:51.369Z,8.10
2022-10-19T21:09:20.404Z,8.10
2022-10-19T21:11:50.024Z,8.19
2022-10-19T21:14:25.281Z,8.23
2022-10-19T21:16:56.738Z,8.17
2022-10-19T21:19:25.377Z,8.20
2022-10-19T21:21:57.693Z,8.06
2022-10-19T21:24:28.424Z,7.98
2022-10-19T21:26:54.835Z,7.95
2022-10-19T21:29:21.246Z,7.93
2022-10-19T21:31:50.142Z,7.80
2022-10-19T21:34:19.281Z,7.88
2022-10-19T21:36:45.847Z,7.75
2022-10-19T21:39:12.231Z,7.80
2022-10-19T21:41:38.694Z,7.73
2022-10-19T21:44:05.226Z,7.69
2022-10-19T21:46:31.684Z,7.66
2022-10-19T21:48:58.143Z,7.64
2022-10-19T21:51:39.188Z,7.61
2022-10-19T21:54:06.571Z,7.64
2022-10-19T21:56:34.550Z,7.66
2022-10-19T21:59:00.959Z,7.70
2022-10-19T22:01:29.420Z,7.62
2022-10-19T22:03:57.134Z,7.67
2022-10-19T22:06:24.928Z,7.70
2022-10-19T22:08:51.666Z,7.66
2022-10-19T22:11:18.566Z,7.73
2022-10-19T22:13:44.965Z,7.77
2022-10-19T22:16:17.171Z,7.78
2022-10-19T22:18:43.982Z,7.81
2022-10-19T22:21:13.469Z,7.75
2022-10-19T22:23:40.506Z,7.78
2022-10-19T22:26:17.915Z,7.87
2022-10-19T22:28:44.897Z,7.80
2022-10-19T22:31:12.143Z,7.77
2022-10-19T22:33:39.285Z,7.80
2022-10-19T22:36:08.495Z,7.80
2022-10-19T22:38:35.292Z,7.80
2022-10-19T22:41:01.747Z,7.84
2022-10-19T22:43:28.173Z,7.88
2022-10-19T22:45:54.621Z,7.88
2022-10-19T22:48:21.032Z,7.80
2022-10-19T22:50:47.459Z,7.87
2022-10-19T22:53:14.059Z,7.87
2022-10-19T22:55:40.679Z,7.88
2022-10-19T22:58:08.602Z,7.95
2022-10-19T23:00:35.562Z,8.04
2022-10-19T23:03:02.023Z,8.04
2022-10-19T23:05:28.554Z,8.00
2022-10-19T23:07:54.983Z,8.08
2022-10-19T23:10:21.908Z,8.08
2022-10-19T23:12:52.755Z,8.05
2022-10-19T23:15:20.897Z,8.04
2022-10-19T23:17:47.623Z,8.18
2022-10-19T23:20:14.614Z,8.02
2022-10-19T23:22:41.020Z,8.02
2022-10-19T23:25:08.320Z,8.08
2022-10-19T23:27:35.167Z,7.94
2022-10-19T23:30:03.304Z,7.97
2022-10-19T23:32:29.760Z,7.97
2022-10-19T23:34:56.160Z,8.09
2022-10-19T23:37:22.696Z,8.00
2022-10-19T23:39:49.106Z,8.06
2022-10-19T23:42:15.505Z,8.09
2022-10-19T23:44:41.915Z,8.05
2022-10-19T23:47:08.313Z,8.14
2022-10-19T23:49:34.736Z,7.98
2022-10-19T23:52:01.190Z,7.94
2022-10-19T23:54:27.584Z,7.92
2022-10-19T23:56:53.982Z,7.95
2022-10-19T23:59:20.377Z,8.01
